KAVX/AVX METAR and TAF weather

Enter ICAO airport designator
Station Type Date Time Source
KAVX METAR 2020/03/31 12:51 UTC NOAA

KAVX 311251Z AUTO 32003KT 10SM CLR 14/07 A3007 RMK AO2 SLP175 T01440067


Station Type Date Time Source
KAVX Decoded METAR 2020/03/31 12:51 UTC NOAA

AVALON CATALINA AIRPORT, CA, United States (KAVX) 33-24N 118-25W 482M
Mar 31, 2020 - 08:51 AM EDT / 2020.03.31 1251 UTC
Wind: from the NW (320 degrees) at 3 MPH (3 KT):0
Visibility: 10 mile(s):0
Sky conditions: clear
Temperature: 57.9 F (14.4 C)
Dew Point: 44.1 F (6.7 C)
Relative Humidity: 59%
Pressure (altimeter): 30.07 in. Hg (1018 hPa)
ob: KAVX 311251Z AUTO 32003KT 10SM CLR 14/07 A3007 RMK AO2 SLP175 T01440067
cycle: 13

Station Type Date Time Source
KAVX TAF UTC NOAA

Error!

Example: see airport list